Terminal Aerodrome Forecast
Issued by NWS

Home | Current Version | Previous Version | Text Only | Print | Product List | Glossary On
Versions: 1 2 3 4 5 6 7 8 9 10 11
000
FTUS45 KLKN 131732
TAFELY
TAF
KELY 131732Z 1318/1418 18008KT P6SM FEW250
     FM131900 34008KT P6SM FEW120 FEW250
     FM140700 35015G25KT P6SM SKC
     FM141200 17015G25KT P6SM FEW250=

USA.gov is the U.S. government's official web portal to all federal, state and local government web resources and services.